SWR340 BGGH-LSGG
Flight info
| Callsign | SWR340 |
|---|---|
| Flight time | N/A |
| Altitude | 37000 |
| Route | EVULO1A EVULO DCT ODEBU/N0480F370 DCT LUSAR |
| Aircraft | A359/H-SDE2E3GHIJ3J4J5LM1ORWXY/LB1D1 |
Departure
| Time | 2026-04-29 16:08 |
|---|---|
| Airport | Nuuk International Airport (BGGH) |
Arrival
| Time | N/A |
|---|---|
| Airport | Geneva International Airport (LSGG) |
| Time | Latitude | Longitude | Altitude | Speed | Heading |
|---|---|---|---|---|---|
| 2026-04-29 16:03 | 64.18574 | -51.67931 | 263 ft | 0 kts | 18° |
| 2026-04-29 16:05 | 64.18591 | -51.67919 | 264 ft | 6 kts | 15° |
| 2026-04-29 16:05 | 64.18626 | -51.68009 | 260 ft | 12 kts | 288° |
| 2026-04-29 16:05 | 64.18642 | -51.68227 | 266 ft | 14 kts | 245° |
| 2026-04-29 16:05 | 64.18548 | -51.68329 | 266 ft | 17 kts | 197° |
| 2026-04-29 16:06 | 64.18415 | -51.68424 | 265 ft | 23 kts | 197° |
| 2026-04-29 16:06 | 64.18248 | -51.68530 | 259 ft | 20 kts | 180° |
| 2026-04-29 16:06 | 64.18146 | -51.68563 | 258 ft | 13 kts | 246° |
| 2026-04-29 16:06 | 64.18167 | -51.68610 | 258 ft | 2 kts | 9° |
| 2026-04-29 16:07 | 64.18170 | -51.68606 | 258 ft | 0 kts | 18° |
| 2026-04-29 16:07 | 64.18353 | -51.68470 | 263 ft | 68 kts | 18° |
| 2026-04-29 16:07 | 64.19066 | -51.67949 | 272 ft | 144 kts | 18° |
| 2026-04-29 16:07 | 64.20130 | -51.67243 | 819 ft | 165 kts | 12° |
| 2026-04-29 16:08 | 64.21295 | -51.67041 | 1743 ft | 184 kts | 357° |
| 2026-04-29 16:08 | 64.22532 | -51.68326 | 2053 ft | 209 kts | 316° |
| 2026-04-29 16:08 | 64.23171 | -51.71434 | 2344 ft | 231 kts | 274° |
| 2026-04-29 16:08 | 64.22739 | -51.75097 | 2577 ft | 253 kts | 233° |
| 2026-04-29 16:09 | 64.21324 | -51.77346 | 3266 ft | 250 kts | 193° |
| 2026-04-29 16:09 | 64.19622 | -51.77452 | 4119 ft | 244 kts | 172° |
| 2026-04-29 16:09 | 64.17938 | -51.76969 | 4963 ft | 242 kts | 172° |
| 2026-04-29 16:09 | 64.16258 | -51.76444 | 5651 ft | 246 kts | 172° |
| 2026-04-29 16:10 | 64.14545 | -51.75856 | 6338 ft | 251 kts | 171° |
| 2026-04-29 16:10 | 64.12822 | -51.75243 | 6942 ft | 257 kts | 171° |
| 2026-04-29 16:10 | 64.11102 | -51.73925 | 7508 ft | 265 kts | 154° |
| 2026-04-29 16:10 | 64.09471 | -51.71853 | 8163 ft | 271 kts | 150° |
| 2026-04-29 16:11 | 64.07849 | -51.69592 | 8835 ft | 276 kts | 149° |
| 2026-04-29 16:11 | 64.06245 | -51.67121 | 9519 ft | 282 kts | 141° |
| 2026-04-29 16:11 | 64.05000 | -51.63621 | 10158 ft | 290 kts | 117° |
| 2026-04-29 16:11 | 64.05762 | -51.47253 | 11103 ft | 349 kts | 72° |
| 2026-04-29 16:12 | 64.08660 | -51.24417 | 12958 ft | 388 kts | 73° |
| 2026-04-29 16:12 | 64.11632 | -51.09374 | 14530 ft | 400 kts | 57° |
| 2026-04-29 16:12 | 64.19607 | -50.79272 | 17465 ft | 426 kts | 56° |
| 2026-04-29 16:12 | 64.25815 | -50.55446 | 19772 ft | 436 kts | 57° |
| 2026-04-29 16:13 | 64.32094 | -50.31101 | 21436 ft | 461 kts | 55° |
| 2026-04-29 16:13 | 64.37892 | -50.03627 | 23347 ft | 490 kts | 77° |
| 2026-04-29 16:13 | 64.37563 | -49.72119 | 25505 ft | 494 kts | 95° |
| 2026-04-29 16:13 | 64.36227 | -49.39767 | 26831 ft | 516 kts | 95° |
| 2026-04-29 16:14 | 64.34909 | -49.06083 | 28009 ft | 538 kts | 94° |
| 2026-04-29 16:14 | 64.33462 | -48.71155 | 29255 ft | 554 kts | 95° |
| 2026-04-29 16:14 | 64.31889 | -48.35487 | 30924 ft | 553 kts | 95° |
| 2026-04-29 16:14 | 64.30241 | -48.00141 | 32142 ft | 555 kts | 95° |
| 2026-04-29 16:15 | 64.28517 | -47.64911 | 33578 ft | 551 kts | 95° |
| 2026-04-29 16:15 | 64.26719 | -47.29986 | 34655 ft | 548 kts | 96° |
| 2026-04-29 16:15 | 64.24849 | -46.95313 | 35833 ft | 540 kts | 96° |
| 2026-04-29 16:15 | 64.22917 | -46.61024 | 36491 ft | 541 kts | 97° |
| 2026-04-29 16:16 | 64.20906 | -46.26803 | 37056 ft | 542 kts | 97° |
| 2026-04-29 16:16 | 64.16626 | -45.58230 | 37050 ft | 544 kts | 98° |
| 2026-04-29 16:17 | 64.12006 | -44.89621 | 37031 ft | 544 kts | 98° |
| 2026-04-29 16:17 | 64.07069 | -44.21308 | 36979 ft | 543 kts | 99° |
| 2026-04-29 16:18 | 64.01852 | -43.53741 | 36925 ft | 543 kts | 100° |
| 2026-04-29 16:18 | 63.96273 | -42.85844 | 36889 ft | 546 kts | 101° |
| 2026-04-29 16:19 | 63.90332 | -42.17704 | 36836 ft | 553 kts | 101° |
| 2026-04-29 16:19 | 63.84031 | -41.49462 | 36810 ft | 546 kts | 102° |
| 2026-04-29 16:20 | 63.77536 | -40.82763 | 36779 ft | 543 kts | 102° |
| 2026-04-29 16:20 | 63.70794 | -40.16962 | 36774 ft | 538 kts | 103° |
| 2026-04-29 16:21 | 63.63747 | -39.51421 | 36771 ft | 539 kts | 104° |
| 2026-04-29 16:21 | 63.56387 | -38.86073 | 36748 ft | 539 kts | 105° |
| 2026-04-29 16:22 | 63.48710 | -38.20887 | 36741 ft | 540 kts | 105° |
| 2026-04-29 16:22 | 63.40818 | -37.56689 | 36736 ft | 537 kts | 106° |
| 2026-04-29 16:23 | 63.32606 | -36.92609 | 36739 ft | 535 kts | 107° |
| 2026-04-29 16:23 | 63.24151 | -36.29205 | 36730 ft | 534 kts | 108° |
| 2026-04-29 16:24 | 63.15418 | -35.66200 | 36741 ft | 534 kts | 108° |
| 2026-04-29 16:24 | 63.06494 | -35.04161 | 36741 ft | 530 kts | 110° |
| 2026-04-29 16:25 | 62.97282 | -34.42397 | 36745 ft | 529 kts | 110° |
| 2026-04-29 16:25 | 62.87888 | -33.81568 | 36755 ft | 527 kts | 111° |
| 2026-04-29 16:26 | 62.78209 | -33.20984 | 36755 ft | 526 kts | 112° |
| 2026-04-29 16:26 | 62.68301 | -32.60978 | 36753 ft | 525 kts | 113° |
| 2026-04-29 16:27 | 62.58126 | -32.01311 | 36755 ft | 525 kts | 114° |
| 2026-04-29 16:27 | 62.47739 | -31.42276 | 36757 ft | 523 kts | 115° |
| 2026-04-29 16:28 | 62.37209 | -30.84222 | 36780 ft | 522 kts | 115° |
| 2026-04-29 16:28 | 62.26399 | -30.26370 | 36801 ft | 519 kts | 116° |
| 2026-04-29 16:29 | 62.15401 | -29.69205 | 36826 ft | 518 kts | 117° |
| 2026-04-29 16:29 | 62.04212 | -29.12659 | 36837 ft | 514 kts | 118° |
| 2026-04-29 16:30 | 61.92843 | -28.56782 | 36862 ft | 513 kts | 119° |
| 2026-04-29 16:30 | 61.81294 | -28.01533 | 36872 ft | 511 kts | 120° |
| 2026-04-29 16:31 | 61.69623 | -27.47156 | 36899 ft | 511 kts | 120° |
| 2026-04-29 16:31 | 61.57693 | -26.92968 | 36909 ft | 508 kts | 122° |
| 2026-04-29 16:32 | 61.45588 | -26.39391 | 36927 ft | 507 kts | 122° |
| 2026-04-29 16:32 | 61.35398 | -25.95296 | 36966 ft | 505 kts | 123° |
| 2026-04-29 16:33 | 61.14730 | -25.08541 | 36999 ft | 502 kts | 124° |
| 2026-04-29 16:33 | 61.02121 | -24.57252 | 37014 ft | 499 kts | 126° |
| 2026-04-29 16:34 | 60.91513 | -24.15007 | 37029 ft | 498 kts | 126° |
| 2026-04-29 16:34 | 60.78638 | -23.64808 | 37046 ft | 495 kts | 127° |
| 2026-04-29 16:35 | 60.65667 | -23.15345 | 37058 ft | 493 kts | 128° |
| 2026-04-29 16:35 | 60.52544 | -22.66384 | 37069 ft | 490 kts | 129° |
| 2026-04-29 16:36 | 60.39375 | -22.18312 | 37084 ft | 490 kts | 129° |
| 2026-04-29 16:36 | 60.26000 | -21.70503 | 37096 ft | 489 kts | 129° |
| 2026-04-29 16:37 | 60.12460 | -21.23101 | 37105 ft | 488 kts | 130° |
| 2026-04-29 16:37 | 60.01106 | -20.84095 | 37111 ft | 487 kts | 130° |
| 2026-04-29 16:38 | 59.84961 | -20.29742 | 37116 ft | 487 kts | 130° |
| 2026-04-29 16:38 | 59.71022 | -19.83821 | 37115 ft | 484 kts | 130° |
| 2026-04-29 16:39 | 59.57053 | -19.38709 | 37106 ft | 483 kts | 130° |
| 2026-04-29 16:39 | 59.42894 | -18.93849 | 37114 ft | 483 kts | 130° |